Aérodrome :







RETROUVEZ-NOUS SUR...

 
LOGIN :

S'inscrire | Disclaimer

   EN    FR    IT 

 









Légende :    VFR   VFR Marginal   IFR   IFR Intensif   IFR Très Intensif
Visi : 
Plafond : 
>= 8 km
>= 3000ft
5 à 8 km
1000 à 3000 ft
1500m à 5 km
500 à 1000 ft
800 à 1500m
200 à 500 ft
< 800m
< 200 ft
Symboles :   Orages  Brouillard  Fortes neiges  Fortes précipitations  Vent > 20 kt






- Altitude de l'aérodrome : 90 ft
- Code IATA : YHU


CYHU - Montréal Saint-Hubert

DERNIER METAR :
  • 150256Z AUTO 24009KT 3SM -RA BR OVC004 03/02 A2891 RMK SLP793

METARs EXPIRÉS :
  • 150235Z AUTO 25005KT 230V300 2SM -RA BR OVC004 03/03 A2890 RMK SLP790
  • 150209Z AUTO 32007KT 310V010 1 3/4SM -RA BR BKN004 OVC012 03/03 A2891 RMK SLP792
  • 150208Z AUTO 33007KT 320V020 1 3/4SM -RA BR BKN006 OVC012 03/03 A2891 RMK SLP792
  • 150155Z AUTO 03007KT 2SM -RA BR SCT006 BKN009 BKN012 OVC033 03/03 A2891 RMK SLP791
  • 150126Z AUTO 06010KT 3SM -RA BR OVC037 03/03 A2892 RMK PRESFR SLP795
  • 150108Z AUTO 04011KT 2SM -UP BR SCT004 OVC035 03/03 A2894 RMK PRESFR SLP803
  • 150103Z AUTO 02009KT 1 3/4SM -UP BR SCT004 OVC031 03/03 A2896 RMK PRESFR SLP808
  • 150056Z AUTO 01008KT 2 1/2SM RA -UP BR BKN004 OVC018 03/03 A2897 RMK SLP812

TAF AMD TAF CYHU
Valide du 15 à 01h jusqu'au 16 à 00h UTC


150143Z 1501/1524 06010KT 3SM RA BR BKN004 OVC040
TEMPO 1501/1506 6SM -RA BR SCT004 OVC040
BECMG 1502/1504 24006KT
FM150600 24022G32KT 6SM -RASN BR OVC008
FM150700 26022G35KT 2SM -SHSN OVC020
PROB30 1507/1509 3/4SM -SN VV007
FM151100 26022G33KT P6SM -SHSN OVC020
FM151500 26022G32KT P6SM BKN025
FM152300 27015G25KT P6SM SCT030 RMK FCST BASED ON AUTO OBS. NXT FCST BY 150600Z



MET'MAP, la Météo Aéronautique d'un coup d'oeil ! - Copyright ORBIFLY Décembre 2007 - Disclaimer

ORBIFLY MET'MAP TEAM :

Programmation & Développement : Alexandra Zaïnal
Sur une idée originale de : Baudouin d'Aumeries
Assistance à la programmation : Marc-Olivier Méhu
Soutien technique & logistique : Manuel Goepfert

Contact : metmap@orbifly.com




SOURCES & CREDITS :

   NOAA